sensor_id;sensor_type;location;lat;lon;timestamp;pressure;altitude;pressure_sealevel;temperature
29423;BMP180;16399;51.686;8.684;2023-05-14T00:02:39;100219.00;;;11.60
29423;BMP180;16399;51.686;8.684;2023-05-14T00:05:41;100207.00;;;11.50
29423;BMP180;16399;51.686;8.684;2023-05-14T00:08:43;100212.00;;;11.50
29423;BMP180;16399;51.686;8.684;2023-05-14T00:11:46;100212.00;;;11.40
29423;BMP180;16399;51.686;8.684;2023-05-14T00:14:48;100214.00;;;11.40
29423;BMP180;16399;51.686;8.684;2023-05-14T00:17:50;100211.00;;;11.30
29423;BMP180;16399;51.686;8.684;2023-05-14T00:20:52;100214.00;;;11.30
29423;BMP180;16399;51.686;8.684;2023-05-14T00:23:55;100205.00;;;11.20
29423;BMP180;16399;51.686;8.684;2023-05-14T00:26:57;100212.00;;;11.20
29423;BMP180;16399;51.686;8.684;2023-05-14T00:29:59;100205.00;;;11.10
29423;BMP180;16399;51.686;8.684;2023-05-14T00:33:02;100208.00;;;11.10
29423;BMP180;16399;51.686;8.684;2023-05-14T00:36:04;100196.00;;;11.10
29423;BMP180;16399;51.686;8.684;2023-05-14T00:39:07;100199.00;;;11.10
29423;BMP180;16399;51.686;8.684;2023-05-14T00:42:09;100185.00;;;11.10
29423;BMP180;16399;51.686;8.684;2023-05-14T00:45:11;100182.00;;;11.00
29423;BMP180;16399;51.686;8.684;2023-05-14T00:48:14;100180.00;;;11.00
29423;BMP180;16399;51.686;8.684;2023-05-14T00:51:16;100185.00;;;11.00
29423;BMP180;16399;51.686;8.684;2023-05-14T00:54:19;100182.00;;;10.90
29423;BMP180;16399;51.686;8.684;2023-05-14T00:57:21;100176.00;;;10.90
29423;BMP180;16399;51.686;8.684;2023-05-14T01:00:24;100172.00;;;10.80
29423;BMP180;16399;51.686;8.684;2023-05-14T01:03:27;100174.00;;;10.80
29423;BMP180;16399;51.686;8.684;2023-05-14T01:09:45;100179.00;;;10.70
29423;BMP180;16399;51.686;8.684;2023-05-14T01:12:56;100172.00;;;10.70
29423;BMP180;16399;51.686;8.684;2023-05-14T01:15:59;100176.00;;;10.70
29423;BMP180;16399;51.686;8.684;2023-05-14T01:19:03;100182.00;;;10.70
29423;BMP180;16399;51.686;8.684;2023-05-14T01:22:06;100173.00;;;10.70
29423;BMP180;16399;51.686;8.684;2023-05-14T01:25:09;100167.00;;;10.70
29423;BMP180;16399;51.686;8.684;2023-05-14T01:28:24;100159.00;;;10.60
29423;BMP180;16399;51.686;8.684;2023-05-14T01:31:26;100169.00;;;10.60
29423;BMP180;16399;51.686;8.684;2023-05-14T01:34:32;100160.00;;;10.60
29423;BMP180;16399;51.686;8.684;2023-05-14T01:37:35;100161.00;;;10.50
29423;BMP180;16399;51.686;8.684;2023-05-14T01:40:38;100156.00;;;10.50
29423;BMP180;16399;51.686;8.684;2023-05-14T01:43:44;100163.00;;;10.50
29423;BMP180;16399;51.686;8.684;2023-05-14T01:46:45;100160.00;;;10.50
29423;BMP180;16399;51.686;8.684;2023-05-14T01:49:48;100158.00;;;10.40
29423;BMP180;16399;51.686;8.684;2023-05-14T01:52:50;100161.00;;;10.30
29423;BMP180;16399;51.686;8.684;2023-05-14T01:55:54;100156.00;;;10.30
29423;BMP180;16399;51.686;8.684;2023-05-14T01:58:56;100148.00;;;10.30
29423;BMP180;16399;51.686;8.684;2023-05-14T02:01:59;100150.00;;;10.20
29423;BMP180;16399;51.686;8.684;2023-05-14T02:05:01;100153.00;;;10.20
29423;BMP180;16399;51.686;8.684;2023-05-14T02:08:03;100152.00;;;10.20
29423;BMP180;16399;51.686;8.684;2023-05-14T02:11:06;100149.00;;;10.10
29423;BMP180;16399;51.686;8.684;2023-05-14T02:14:08;100142.00;;;10.10
29423;BMP180;16399;51.686;8.684;2023-05-14T02:17:11;100146.00;;;10.10
29423;BMP180;16399;51.686;8.684;2023-05-14T02:20:15;100152.00;;;10.10
29423;BMP180;16399;51.686;8.684;2023-05-14T02:23:17;100146.00;;;10.10
29423;BMP180;16399;51.686;8.684;2023-05-14T02:26:19;100145.00;;;10.10
29423;BMP180;16399;51.686;8.684;2023-05-14T02:29:21;100150.00;;;10.10
29423;BMP180;16399;51.686;8.684;2023-05-14T02:32:24;100143.00;;;10.10
29423;BMP180;16399;51.686;8.684;2023-05-14T02:35:26;100145.00;;;10.00
29423;BMP180;16399;51.686;8.684;2023-05-14T02:38:28;100148.00;;;10.00
29423;BMP180;16399;51.686;8.684;2023-05-14T02:41:31;100139.00;;;9.90
29423;BMP180;16399;51.686;8.684;2023-05-14T02:44:33;100144.00;;;9.90
29423;BMP180;16399;51.686;8.684;2023-05-14T02:47:35;100150.00;;;9.90
29423;BMP180;16399;51.686;8.684;2023-05-14T02:50:37;100151.00;;;9.80
29423;BMP180;16399;51.686;8.684;2023-05-14T02:53:40;100142.00;;;9.80
29423;BMP180;16399;51.686;8.684;2023-05-14T02:56:42;100147.00;;;9.70
29423;BMP180;16399;51.686;8.684;2023-05-14T02:59:44;100144.00;;;9.70
29423;BMP180;16399;51.686;8.684;2023-05-14T03:02:47;100150.00;;;9.60
29423;BMP180;16399;51.686;8.684;2023-05-14T03:05:49;100143.00;;;9.60
29423;BMP180;16399;51.686;8.684;2023-05-14T03:08:52;100137.00;;;9.60
29423;BMP180;16399;51.686;8.684;2023-05-14T03:11:54;100141.00;;;9.60
29423;BMP180;16399;51.686;8.684;2023-05-14T03:14:56;100144.00;;;9.60
29423;BMP180;16399;51.686;8.684;2023-05-14T03:17:59;100140.00;;;9.60
29423;BMP180;16399;51.686;8.684;2023-05-14T03:21:01;100127.00;;;9.60
29423;BMP180;16399;51.686;8.684;2023-05-14T03:24:04;100134.00;;;9.60
29423;BMP180;16399;51.686;8.684;2023-05-14T03:27:06;100125.00;;;9.60
29423;BMP180;16399;51.686;8.684;2023-05-14T03:30:09;100131.00;;;9.60
29423;BMP180;16399;51.686;8.684;2023-05-14T03:33:11;100115.00;;;9.60
29423;BMP180;16399;51.686;8.684;2023-05-14T03:36:14;100120.00;;;9.60
29423;BMP180;16399;51.686;8.684;2023-05-14T03:39:16;100119.00;;;9.60
29423;BMP180;16399;51.686;8.684;2023-05-14T03:42:20;100123.00;;;9.60
29423;BMP180;16399;51.686;8.684;2023-05-14T03:45:22;100117.00;;;9.60
29423;BMP180;16399;51.686;8.684;2023-05-14T03:48:25;100114.00;;;9.60
29423;BMP180;16399;51.686;8.684;2023-05-14T03:51:27;100112.00;;;9.60
29423;BMP180;16399;51.686;8.684;2023-05-14T03:54:29;100117.00;;;9.70
29423;BMP180;16399;51.686;8.684;2023-05-14T03:57:31;100118.00;;;9.70
29423;BMP180;16399;51.686;8.684;2023-05-14T04:00:34;100118.00;;;9.80
29423;BMP180;16399;51.686;8.684;2023-05-14T04:03:36;100121.00;;;9.80
29423;BMP180;16399;51.686;8.684;2023-05-14T04:06:38;100128.00;;;9.90
29423;BMP180;16399;51.686;8.684;2023-05-14T04:09:41;100111.00;;;10.20
29423;BMP180;16399;51.686;8.684;2023-05-14T04:12:43;100117.00;;;10.70
29423;BMP180;16399;51.686;8.684;2023-05-14T04:15:45;100118.00;;;11.40
29423;BMP180;16399;51.686;8.684;2023-05-14T04:18:48;100119.00;;;11.80
29423;BMP180;16399;51.686;8.684;2023-05-14T04:21:50;100113.00;;;11.90
29423;BMP180;16399;51.686;8.684;2023-05-14T04:24:52;100110.00;;;11.90
29423;BMP180;16399;51.686;8.684;2023-05-14T04:27:55;100111.00;;;11.80
29423;BMP180;16399;51.686;8.684;2023-05-14T04:30:57;100106.00;;;11.70
29423;BMP180;16399;51.686;8.684;2023-05-14T04:33:59;100104.00;;;11.60
29423;BMP180;16399;51.686;8.684;2023-05-14T04:37:02;100104.00;;;11.80
29423;BMP180;16399;51.686;8.684;2023-05-14T04:40:07;100092.00;;;12.50
29423;BMP180;16399;51.686;8.684;2023-05-14T04:43:08;100083.00;;;13.20
29423;BMP180;16399;51.686;8.684;2023-05-14T04:46:12;100086.00;;;13.80
29423;BMP180;16399;51.686;8.684;2023-05-14T04:49:15;100094.00;;;14.30
29423;BMP180;16399;51.686;8.684;2023-05-14T04:52:17;100085.00;;;14.60
29423;BMP180;16399;51.686;8.684;2023-05-14T04:55:20;100082.00;;;14.80
29423;BMP180;16399;51.686;8.684;2023-05-14T04:58:22;100083.00;;;14.90
29423;BMP180;16399;51.686;8.684;2023-05-14T05:01:25;100082.00;;;14.90
29423;BMP180;16399;51.686;8.684;2023-05-14T05:04:27;100083.00;;;15.20
29423;BMP180;16399;51.686;8.684;2023-05-14T05:07:29;100080.00;;;15.50
29423;BMP180;16399;51.686;8.684;2023-05-14T05:10:32;100074.00;;;16.00
29423;BMP180;16399;51.686;8.684;2023-05-14T05:13:34;100080.00;;;16.40
29423;BMP180;16399;51.686;8.684;2023-05-14T05:16:36;100067.00;;;16.90
29423;BMP180;16399;51.686;8.684;2023-05-14T05:19:38;100065.00;;;17.20
29423;BMP180;16399;51.686;8.684;2023-05-14T05:22:41;100067.00;;;17.40
29423;BMP180;16399;51.686;8.684;2023-05-14T05:25:43;100066.00;;;17.60
29423;BMP180;16399;51.686;8.684;2023-05-14T05:28:45;100075.00;;;17.80
29423;BMP180;16399;51.686;8.684;2023-05-14T05:31:48;100075.00;;;17.90
29423;BMP180;16399;51.686;8.684;2023-05-14T05:34:51;100067.00;;;17.80
29423;BMP180;16399;51.686;8.684;2023-05-14T05:37:53;100066.00;;;17.50
29423;BMP180;16399;51.686;8.684;2023-05-14T05:40:56;100069.00;;;17.30
29423;BMP180;16399;51.686;8.684;2023-05-14T05:43:58;100077.00;;;17.10
29423;BMP180;16399;51.686;8.684;2023-05-14T05:47:00;100075.00;;;16.90
29423;BMP180;16399;51.686;8.684;2023-05-14T05:50:03;100075.00;;;16.60
29423;BMP180;16399;51.686;8.684;2023-05-14T05:53:05;100091.00;;;16.50
29423;BMP180;16399;51.686;8.684;2023-05-14T05:56:07;100076.00;;;16.40
29423;BMP180;16399;51.686;8.684;2023-05-14T05:59:10;100084.00;;;16.30
29423;BMP180;16399;51.686;8.684;2023-05-14T06:02:12;100092.00;;;16.20
29423;BMP180;16399;51.686;8.684;2023-05-14T06:05:14;100093.00;;;16.10
29423;BMP180;16399;51.686;8.684;2023-05-14T06:08:17;100083.00;;;15.90
29423;BMP180;16399;51.686;8.684;2023-05-14T06:11:19;100085.00;;;15.90
29423;BMP180;16399;51.686;8.684;2023-05-14T06:14:22;100091.00;;;15.90
29423;BMP180;16399;51.686;8.684;2023-05-14T06:17:25;100089.00;;;15.90
29423;BMP180;16399;51.686;8.684;2023-05-14T06:20:28;100080.00;;;16.00
29423;BMP180;16399;51.686;8.684;2023-05-14T06:23:30;100089.00;;;16.00
29423;BMP180;16399;51.686;8.684;2023-05-14T06:26:33;100089.00;;;16.10
29423;BMP180;16399;51.686;8.684;2023-05-14T06:29:35;100089.00;;;16.20
29423;BMP180;16399;51.686;8.684;2023-05-14T06:32:37;100090.00;;;16.40
29423;BMP180;16399;51.686;8.684;2023-05-14T06:35:39;100089.00;;;16.50
29423;BMP180;16399;51.686;8.684;2023-05-14T06:38:42;100087.00;;;16.60
29423;BMP180;16399;51.686;8.684;2023-05-14T06:41:44;100080.00;;;16.60
29423;BMP180;16399;51.686;8.684;2023-05-14T06:44:46;100080.00;;;16.70
29423;BMP180;16399;51.686;8.684;2023-05-14T06:47:49;100082.00;;;16.60
29423;BMP180;16399;51.686;8.684;2023-05-14T06:50:51;100087.00;;;16.80
29423;BMP180;16399;51.686;8.684;2023-05-14T06:53:54;100090.00;;;16.90
29423;BMP180;16399;51.686;8.684;2023-05-14T06:56:57;100087.00;;;17.10
29423;BMP180;16399;51.686;8.684;2023-05-14T06:59:59;100086.00;;;17.30
29423;BMP180;16399;51.686;8.684;2023-05-14T07:03:01;100087.00;;;17.40
29423;BMP180;16399;51.686;8.684;2023-05-14T07:06:04;100084.00;;;17.50
29423;BMP180;16399;51.686;8.684;2023-05-14T07:09:06;100082.00;;;17.60
29423;BMP180;16399;51.686;8.684;2023-05-14T07:12:09;100076.00;;;17.70
29423;BMP180;16399;51.686;8.684;2023-05-14T07:15:11;100076.00;;;17.70
29423;BMP180;16399;51.686;8.684;2023-05-14T07:18:13;100077.00;;;17.70
29423;BMP180;16399;51.686;8.684;2023-05-14T07:21:16;100082.00;;;17.90
29423;BMP180;16399;51.686;8.684;2023-05-14T07:24:18;100064.00;;;18.00
29423;BMP180;16399;51.686;8.684;2023-05-14T07:27:20;100075.00;;;18.20
29423;BMP180;16399;51.686;8.684;2023-05-14T07:30:22;100070.00;;;18.40
29423;BMP180;16399;51.686;8.684;2023-05-14T07:33:25;100070.00;;;18.60
29423;BMP180;16399;51.686;8.684;2023-05-14T07:36:27;100073.00;;;18.80
29423;BMP180;16399;51.686;8.684;2023-05-14T07:39:29;100065.00;;;19.00
29423;BMP180;16399;51.686;8.684;2023-05-14T07:42:32;100057.00;;;19.20
29423;BMP180;16399;51.686;8.684;2023-05-14T07:45:36;100058.00;;;19.40
29423;BMP180;16399;51.686;8.684;2023-05-14T07:48:38;100055.00;;;19.50
29423;BMP180;16399;51.686;8.684;2023-05-14T07:51:40;100059.00;;;19.60
29423;BMP180;16399;51.686;8.684;2023-05-14T07:54:43;100055.00;;;19.60
29423;BMP180;16399;51.686;8.684;2023-05-14T07:57:45;100060.00;;;19.50
29423;BMP180;16399;51.686;8.684;2023-05-14T08:00:47;100058.00;;;19.40
29423;BMP180;16399;51.686;8.684;2023-05-14T08:03:50;100055.00;;;19.40
29423;BMP180;16399;51.686;8.684;2023-05-14T08:06:52;100052.00;;;19.30
29423;BMP180;16399;51.686;8.684;2023-05-14T08:09:56;100038.00;;;19.30
29423;BMP180;16399;51.686;8.684;2023-05-14T08:12:58;100029.00;;;19.40
29423;BMP180;16399;51.686;8.684;2023-05-14T08:16:01;100037.00;;;19.70
29423;BMP180;16399;51.686;8.684;2023-05-14T08:19:03;100030.00;;;19.90
29423;BMP180;16399;51.686;8.684;2023-05-14T08:22:05;100032.00;;;19.80
29423;BMP180;16399;51.686;8.684;2023-05-14T08:25:08;100036.00;;;19.80
29423;BMP180;16399;51.686;8.684;2023-05-14T08:28:11;100043.00;;;20.00
29423;BMP180;16399;51.686;8.684;2023-05-14T08:31:13;100041.00;;;20.10
29423;BMP180;16399;51.686;8.684;2023-05-14T08:34:16;100038.00;;;19.70
29423;BMP180;16399;51.686;8.684;2023-05-14T08:37:18;100033.00;;;19.70
29423;BMP180;16399;51.686;8.684;2023-05-14T08:40:20;100037.00;;;19.70
29423;BMP180;16399;51.686;8.684;2023-05-14T08:43:25;100039.00;;;19.80
29423;BMP180;16399;51.686;8.684;2023-05-14T08:46:29;100033.00;;;19.90
29423;BMP180;16399;51.686;8.684;2023-05-14T08:49:38;100031.00;;;19.90
29423;BMP180;16399;51.686;8.684;2023-05-14T08:52:41;100029.00;;;19.70
29423;BMP180;16399;51.686;8.684;2023-05-14T08:55:44;100035.00;;;19.60
29423;BMP180;16399;51.686;8.684;2023-05-14T08:58:47;100042.00;;;19.50
29423;BMP180;16399;51.686;8.684;2023-05-14T09:01:52;100034.00;;;19.40
29423;BMP180;16399;51.686;8.684;2023-05-14T09:04:57;100029.00;;;19.40
29423;BMP180;16399;51.686;8.684;2023-05-14T09:07:59;100028.00;;;19.60
29423;BMP180;16399;51.686;8.684;2023-05-14T09:11:02;100027.00;;;19.90
29423;BMP180;16399;51.686;8.684;2023-05-14T09:14:04;100019.00;;;20.10
29423;BMP180;16399;51.686;8.684;2023-05-14T09:17:07;100020.00;;;20.40
29423;BMP180;16399;51.686;8.684;2023-05-14T09:20:11;100022.00;;;20.50
29423;BMP180;16399;51.686;8.684;2023-05-14T09:23:13;100012.00;;;20.50
29423;BMP180;16399;51.686;8.684;2023-05-14T09:26:16;99999.00;;;20.60
29423;BMP180;16399;51.686;8.684;2023-05-14T09:29:19;100006.00;;;20.80
29423;BMP180;16399;51.686;8.684;2023-05-14T09:32:21;99997.00;;;21.10
29423;BMP180;16399;51.686;8.684;2023-05-14T09:35:24;100001.00;;;21.40
29423;BMP180;16399;51.686;8.684;2023-05-14T09:38:30;100002.00;;;21.50
29423;BMP180;16399;51.686;8.684;2023-05-14T09:41:32;99993.00;;;21.70
29423;BMP180;16399;51.686;8.684;2023-05-14T09:44:34;99985.00;;;22.00
29423;BMP180;16399;51.686;8.684;2023-05-14T09:47:38;99986.00;;;22.50
29423;BMP180;16399;51.686;8.684;2023-05-14T09:50:45;99987.00;;;22.90
29423;BMP180;16399;51.686;8.684;2023-05-14T09:53:48;99988.00;;;22.60
29423;BMP180;16399;51.686;8.684;2023-05-14T09:56:51;99980.00;;;22.60
29423;BMP180;16399;51.686;8.684;2023-05-14T09:59:54;99987.00;;;22.50
29423;BMP180;16399;51.686;8.684;2023-05-14T10:02:57;99977.00;;;22.80
29423;BMP180;16399;51.686;8.684;2023-05-14T10:06:03;99982.00;;;23.00
29423;BMP180;16399;51.686;8.684;2023-05-14T10:09:12;99973.00;;;23.00
29423;BMP180;16399;51.686;8.684;2023-05-14T10:12:17;99964.00;;;23.00
29423;BMP180;16399;51.686;8.684;2023-05-14T10:15:23;99967.00;;;23.00
29423;BMP180;16399;51.686;8.684;2023-05-14T10:18:28;99973.00;;;22.70
29423;BMP180;16399;51.686;8.684;2023-05-14T10:21:34;99977.00;;;22.60
29423;BMP180;16399;51.686;8.684;2023-05-14T10:24:37;99970.00;;;22.70
29423;BMP180;16399;51.686;8.684;2023-05-14T10:27:40;99968.00;;;22.60
29423;BMP180;16399;51.686;8.684;2023-05-14T10:30:45;99972.00;;;22.40
29423;BMP180;16399;51.686;8.684;2023-05-14T10:33:49;99973.00;;;22.00
29423;BMP180;16399;51.686;8.684;2023-05-14T10:36:52;99957.00;;;22.10
29423;BMP180;16399;51.686;8.684;2023-05-14T10:39:59;99955.00;;;22.40
29423;BMP180;16399;51.686;8.684;2023-05-14T10:43:03;99950.00;;;23.00
29423;BMP180;16399;51.686;8.684;2023-05-14T10:46:07;99946.00;;;23.60
29423;BMP180;16399;51.686;8.684;2023-05-14T10:49:10;99954.00;;;23.90
29423;BMP180;16399;51.686;8.684;2023-05-14T10:52:14;99951.00;;;23.80
29423;BMP180;16399;51.686;8.684;2023-05-14T10:55:16;99948.00;;;23.60
29423;BMP180;16399;51.686;8.684;2023-05-14T10:58:20;99946.00;;;23.00
29423;BMP180;16399;51.686;8.684;2023-05-14T11:01:23;99944.00;;;22.30
29423;BMP180;16399;51.686;8.684;2023-05-14T11:04:27;99937.00;;;22.10
29423;BMP180;16399;51.686;8.684;2023-05-14T11:07:31;99929.00;;;22.10
29423;BMP180;16399;51.686;8.684;2023-05-14T11:10:34;99931.00;;;22.30
29423;BMP180;16399;51.686;8.684;2023-05-14T11:13:37;99926.00;;;22.60
29423;BMP180;16399;51.686;8.684;2023-05-14T11:16:39;99927.00;;;22.60
29423;BMP180;16399;51.686;8.684;2023-05-14T11:19:43;99925.00;;;22.80
29423;BMP180;16399;51.686;8.684;2023-05-14T11:22:47;99907.00;;;22.70
29423;BMP180;16399;51.686;8.684;2023-05-14T11:25:53;99899.00;;;22.80
29423;BMP180;16399;51.686;8.684;2023-05-14T11:28:55;99904.00;;;22.90
29423;BMP180;16399;51.686;8.684;2023-05-14T11:31:57;99909.00;;;22.90
29423;BMP180;16399;51.686;8.684;2023-05-14T11:35:00;99896.00;;;22.80
29423;BMP180;16399;51.686;8.684;2023-05-14T11:38:02;99894.00;;;22.70
29423;BMP180;16399;51.686;8.684;2023-05-14T11:41:04;99897.00;;;22.40
29423;BMP180;16399;51.686;8.684;2023-05-14T11:44:07;99899.00;;;22.50
29423;BMP180;16399;51.686;8.684;2023-05-14T11:47:11;99890.00;;;22.50
29423;BMP180;16399;51.686;8.684;2023-05-14T11:50:13;99892.00;;;22.40
29423;BMP180;16399;51.686;8.684;2023-05-14T11:53:27;99895.00;;;22.40
29423;BMP180;16399;51.686;8.684;2023-05-14T11:56:30;99891.00;;;22.60
29423;BMP180;16399;51.686;8.684;2023-05-14T11:59:33;99886.00;;;22.80
29423;BMP180;16399;51.686;8.684;2023-05-14T12:02:36;99886.00;;;22.90
29423;BMP180;16399;51.686;8.684;2023-05-14T12:05:38;99883.00;;;23.00
29423;BMP180;16399;51.686;8.684;2023-05-14T12:08:41;99877.00;;;23.00
29423;BMP180;16399;51.686;8.684;2023-05-14T12:11:49;99882.00;;;22.90
29423;BMP180;16399;51.686;8.684;2023-05-14T12:14:48;99888.00;;;22.80
29423;BMP180;16399;51.686;8.684;2023-05-14T12:17:51;99884.00;;;22.40
29423;BMP180;16399;51.686;8.684;2023-05-14T12:20:53;99882.00;;;21.90
29423;BMP180;16399;51.686;8.684;2023-05-14T12:23:58;99883.00;;;21.70
29423;BMP180;16399;51.686;8.684;2023-05-14T12:27:01;99873.00;;;21.90
29423;BMP180;16399;51.686;8.684;2023-05-14T12:30:05;99876.00;;;22.00
29423;BMP180;16399;51.686;8.684;2023-05-14T12:33:08;99870.00;;;22.50
29423;BMP180;16399;51.686;8.684;2023-05-14T12:36:10;99854.00;;;23.00
29423;BMP180;16399;51.686;8.684;2023-05-14T12:39:12;99857.00;;;23.20
29423;BMP180;16399;51.686;8.684;2023-05-14T12:42:15;99856.00;;;23.40
29423;BMP180;16399;51.686;8.684;2023-05-14T12:45:17;99853.00;;;23.50
29423;BMP180;16399;51.686;8.684;2023-05-14T12:48:20;99847.00;;;23.40
29423;BMP180;16399;51.686;8.684;2023-05-14T12:51:22;99844.00;;;23.30
29423;BMP180;16399;51.686;8.684;2023-05-14T12:54:24;99840.00;;;23.00
29423;BMP180;16399;51.686;8.684;2023-05-14T12:57:27;99839.00;;;23.10
29423;BMP180;16399;51.686;8.684;2023-05-14T13:00:30;99830.00;;;23.30
29423;BMP180;16399;51.686;8.684;2023-05-14T13:03:32;99827.00;;;23.20
29423;BMP180;16399;51.686;8.684;2023-05-14T13:06:36;99829.00;;;23.10
29423;BMP180;16399;51.686;8.684;2023-05-14T13:09:38;99841.00;;;22.90
29423;BMP180;16399;51.686;8.684;2023-05-14T13:12:40;99831.00;;;22.70
29423;BMP180;16399;51.686;8.684;2023-05-14T13:15:43;99833.00;;;22.40
29423;BMP180;16399;51.686;8.684;2023-05-14T13:18:46;99837.00;;;22.10
29423;BMP180;16399;51.686;8.684;2023-05-14T13:21:49;99840.00;;;21.90
29423;BMP180;16399;51.686;8.684;2023-05-14T13:24:51;99829.00;;;21.70
29423;BMP180;16399;51.686;8.684;2023-05-14T13:27:53;99827.00;;;21.50
29423;BMP180;16399;51.686;8.684;2023-05-14T13:31:05;99823.00;;;21.30
29423;BMP180;16399;51.686;8.684;2023-05-14T13:34:08;99824.00;;;21.20
29423;BMP180;16399;51.686;8.684;2023-05-14T13:37:10;99818.00;;;21.00
29423;BMP180;16399;51.686;8.684;2023-05-14T13:40:12;99818.00;;;20.80
29423;BMP180;16399;51.686;8.684;2023-05-14T13:43:15;99804.00;;;20.70
29423;BMP180;16399;51.686;8.684;2023-05-14T13:46:17;99803.00;;;20.70
29423;BMP180;16399;51.686;8.684;2023-05-14T13:49:19;99802.00;;;20.90
29423;BMP180;16399;51.686;8.684;2023-05-14T13:52:22;99805.00;;;21.10
29423;BMP180;16399;51.686;8.684;2023-05-14T13:55:24;99808.00;;;21.10
29423;BMP180;16399;51.686;8.684;2023-05-14T13:58:27;99802.00;;;21.10
29423;BMP180;16399;51.686;8.684;2023-05-14T14:01:30;99793.00;;;21.10
29423;BMP180;16399;51.686;8.684;2023-05-14T14:04:32;99788.00;;;21.20
29423;BMP180;16399;51.686;8.684;2023-05-14T14:07:34;99797.00;;;21.40
29423;BMP180;16399;51.686;8.684;2023-05-14T14:10:37;99805.00;;;21.40
29423;BMP180;16399;51.686;8.684;2023-05-14T14:13:42;99811.00;;;21.10
29423;BMP180;16399;51.686;8.684;2023-05-14T14:16:45;99812.00;;;20.50
29423;BMP180;16399;51.686;8.684;2023-05-14T14:19:47;99806.00;;;20.10
29423;BMP180;16399;51.686;8.684;2023-05-14T14:22:49;99819.00;;;19.30
29423;BMP180;16399;51.686;8.684;2023-05-14T14:25:51;99827.00;;;18.60
29423;BMP180;16399;51.686;8.684;2023-05-14T14:28:54;99823.00;;;17.90
29423;BMP180;16399;51.686;8.684;2023-05-14T14:31:56;99838.00;;;17.20
29423;BMP180;16399;51.686;8.684;2023-05-14T14:34:59;99826.00;;;16.90
29423;BMP180;16399;51.686;8.684;2023-05-14T14:38:01;99831.00;;;16.60
29423;BMP180;16399;51.686;8.684;2023-05-14T14:41:04;99842.00;;;16.30
29423;BMP180;16399;51.686;8.684;2023-05-14T14:44:08;99840.00;;;16.10
29423;BMP180;16399;51.686;8.684;2023-05-14T14:47:10;99832.00;;;15.80
29423;BMP180;16399;51.686;8.684;2023-05-14T14:50:12;99830.00;;;15.50
29423;BMP180;16399;51.686;8.684;2023-05-14T14:53:15;99834.00;;;15.30
29423;BMP180;16399;51.686;8.684;2023-05-14T14:56:17;99822.00;;;15.20
29423;BMP180;16399;51.686;8.684;2023-05-14T14:59:19;99821.00;;;15.20
29423;BMP180;16399;51.686;8.684;2023-05-14T15:02:22;99811.00;;;15.10
29423;BMP180;16399;51.686;8.684;2023-05-14T15:05:24;99813.00;;;15.10
29423;BMP180;16399;51.686;8.684;2023-05-14T15:08:27;99796.00;;;15.20
29423;BMP180;16399;51.686;8.684;2023-05-14T15:11:29;99807.00;;;15.30
29423;BMP180;16399;51.686;8.684;2023-05-14T15:14:32;99800.00;;;15.40
29423;BMP180;16399;51.686;8.684;2023-05-14T15:17:34;99818.00;;;15.50
29423;BMP180;16399;51.686;8.684;2023-05-14T15:20:36;99813.00;;;15.60
29423;BMP180;16399;51.686;8.684;2023-05-14T15:23:39;99820.00;;;15.60
29423;BMP180;16399;51.686;8.684;2023-05-14T15:26:41;99802.00;;;15.60
29423;BMP180;16399;51.686;8.684;2023-05-14T15:29:43;99796.00;;;15.70
29423;BMP180;16399;51.686;8.684;2023-05-14T15:32:46;99795.00;;;15.70
29423;BMP180;16399;51.686;8.684;2023-05-14T15:35:48;99803.00;;;15.80
29423;BMP180;16399;51.686;8.684;2023-05-14T15:38:51;99788.00;;;15.90
29423;BMP180;16399;51.686;8.684;2023-05-14T15:41:53;99782.00;;;16.00
29423;BMP180;16399;51.686;8.684;2023-05-14T15:44:56;99776.00;;;16.10
29423;BMP180;16399;51.686;8.684;2023-05-14T15:47:58;99768.00;;;16.20
29423;BMP180;16399;51.686;8.684;2023-05-14T15:51:01;99774.00;;;16.30
29423;BMP180;16399;51.686;8.684;2023-05-14T15:54:03;99763.00;;;16.50
29423;BMP180;16399;51.686;8.684;2023-05-14T15:57:06;99761.00;;;16.50
29423;BMP180;16399;51.686;8.684;2023-05-14T16:00:08;99759.00;;;16.60
29423;BMP180;16399;51.686;8.684;2023-05-14T16:03:11;99756.00;;;16.60
29423;BMP180;16399;51.686;8.684;2023-05-14T16:06:14;99752.00;;;16.70
29423;BMP180;16399;51.686;8.684;2023-05-14T16:09:16;99744.00;;;16.70
29423;BMP180;16399;51.686;8.684;2023-05-14T16:12:18;99740.00;;;16.70
29423;BMP180;16399;51.686;8.684;2023-05-14T16:15:21;99739.00;;;16.70
29423;BMP180;16399;51.686;8.684;2023-05-14T16:18:23;99741.00;;;16.70
29423;BMP180;16399;51.686;8.684;2023-05-14T16:21:25;99739.00;;;16.70
29423;BMP180;16399;51.686;8.684;2023-05-14T16:24:28;99747.00;;;16.70
29423;BMP180;16399;51.686;8.684;2023-05-14T16:27:30;99746.00;;;16.60
29423;BMP180;16399;51.686;8.684;2023-05-14T16:30:33;99746.00;;;16.60
29423;BMP180;16399;51.686;8.684;2023-05-14T16:33:35;99745.00;;;16.50
29423;BMP180;16399;51.686;8.684;2023-05-14T16:36:38;99740.00;;;16.50
29423;BMP180;16399;51.686;8.684;2023-05-14T16:39:40;99737.00;;;16.40
29423;BMP180;16399;51.686;8.684;2023-05-14T16:42:42;99737.00;;;16.50
29423;BMP180;16399;51.686;8.684;2023-05-14T16:45:44;99737.00;;;16.50
29423;BMP180;16399;51.686;8.684;2023-05-14T16:48:47;99729.00;;;16.60
29423;BMP180;16399;51.686;8.684;2023-05-14T16:51:50;99733.00;;;16.70
29423;BMP180;16399;51.686;8.684;2023-05-14T16:54:53;99731.00;;;16.80
29423;BMP180;16399;51.686;8.684;2023-05-14T16:57:55;99728.00;;;16.80
29423;BMP180;16399;51.686;8.684;2023-05-14T17:00:57;99729.00;;;16.90
29423;BMP180;16399;51.686;8.684;2023-05-14T17:03:59;99736.00;;;16.90
29423;BMP180;16399;51.686;8.684;2023-05-14T17:07:02;99741.00;;;17.00
29423;BMP180;16399;51.686;8.684;2023-05-14T17:10:05;99737.00;;;17.00
29423;BMP180;16399;51.686;8.684;2023-05-14T17:13:07;99728.00;;;17.10
29423;BMP180;16399;51.686;8.684;2023-05-14T17:16:09;99722.00;;;17.10
29423;BMP180;16399;51.686;8.684;2023-05-14T17:19:12;99726.00;;;17.10
29423;BMP180;16399;51.686;8.684;2023-05-14T17:22:14;99731.00;;;17.10
29423;BMP180;16399;51.686;8.684;2023-05-14T17:25:16;99724.00;;;17.20
29423;BMP180;16399;51.686;8.684;2023-05-14T17:28:19;99723.00;;;17.20
29423;BMP180;16399;51.686;8.684;2023-05-14T17:31:21;99723.00;;;17.20